»·PEaware :: N420VL KPDX-KPDX

N420VL :: KPDX-KPDX

FLIGHT INFORMATION

Flight Status: Arrived
Operator: Privately registered:
United States
More flights under this callsign
Pilot: Chris Valdés (11989)
Aircraft: BEECH AIRCRAFT BEECH AIRLINER
(B190)
More flights by this aircraft type
Origin: KPDX Portland Intl
United States
Destination: KPDX Portland Intl
United States
More flights between these airports :: More routes between these airports
Route: +
File this flight plan on PilotEdge
Remarks: VFR tour
Altitude:
(Current/Filed)
10,000ft
Speed:
(Current/Filed)
260kts
Departed: 29-Dec-16 02:21 PM
Arrived: 29-Dec-16 03:15 PM
Distance/Time
Traveled:
0nm/0:54
Distance/Time
To Go:
Arrived

Flight Plot

Page will automatically refresh every two minutes.


Map Options




Map Legend


Flown Route
Filed Route
Departure Airport
Arrival Airport
Navaid (VOR, NDB)
Fix

Horizontal Profiles

Position Reports

Time Latitude Longitude Heading Altitude Ground
Speed
29-Dec-16 14:00 45.585486 -122.578024 298 21ft 0kts
29-Dec-16 14:01 45.585486 -122.578024 298 21ft 0kts
29-Dec-16 14:02 45.585486 -122.578024 298 21ft 0kts
29-Dec-16 14:03 45.585486 -122.578024 298 21ft 0kts
29-Dec-16 14:04 45.585486 -122.578024 298 21ft 0kts
29-Dec-16 14:05 45.585486 -122.578024 298 21ft 0kts
29-Dec-16 14:06 45.585487 -122.578024 298 21ft 0kts
29-Dec-16 14:07 45.585487 -122.578024 298 21ft 0kts
29-Dec-16 14:08 45.585487 -122.578024 298 21ft 0kts
29-Dec-16 14:08 45.585487 -122.578024 298 21ft 0kts
29-Dec-16 14:10 45.585487 -122.578024 298 21ft 0kts
29-Dec-16 14:11 45.585487 -122.578024 298 21ft 0kts
29-Dec-16 14:12 45.585487 -122.578024 298 21ft 0kts
29-Dec-16 14:12 45.585487 -122.578024 298 21ft 0kts
29-Dec-16 14:14 45.585498 -122.578046 310 21ft 1kts
29-Dec-16 14:15 45.586290 -122.577001 303 21ft 11kts
29-Dec-16 14:16 45.588908 -122.583691 299 21ft 24kts
29-Dec-16 14:16 45.591741 -122.590969 298 21ft 25kts
29-Dec-16 14:18 45.594366 -122.599860 301 21ft 18kts
29-Dec-16 14:19 45.595717 -122.600490 34 21ft 0kts
29-Dec-16 14:19 45.596210 -122.599223 114 21ft 11kts
29-Dec-16 14:20 45.583106 -122.566329 121 959ft 148kts
29-Dec-16 14:21 45.609744 -122.519937 17 2283ft 207kts
29-Dec-16 14:22 45.664849 -122.500832 9 3729ft 208kts
29-Dec-16 14:23 45.722199 -122.486140 13 4886ft 213kts
29-Dec-16 14:24 45.779696 -122.466879 13 6013ft 215kts
29-Dec-16 14:25 45.838497 -122.447865 12 7000ft 221kts
29-Dec-16 14:26 45.899310 -122.428079 12 7745ft 254kts
29-Dec-16 14:27 45.964707 -122.405945 12 7820ft 274kts
29-Dec-16 14:28 46.037320 -122.379998 18 7813ft 263kts
29-Dec-16 14:29 46.085439 -122.317773 53 7816ft 256kts
29-Dec-16 14:30 46.114354 -122.261360 55 7818ft 255kts
29-Dec-16 14:31 46.146492 -122.198152 55 7818ft 255kts
29-Dec-16 14:32 46.197865 -122.134463 18 7781ft 260kts
29-Dec-16 14:33 46.267715 -122.140638 334 7706ft 255kts
29-Dec-16 14:34 46.330714 -122.181357 4 7708ft 257kts
29-Dec-16 14:35 46.390939 -122.123179 60 7130ft 266kts
29-Dec-16 14:36 46.407713 -122.024666 82 7372ft 252kts
29-Dec-16 14:37 46.421191 -121.923953 81 7346ft 251kts
29-Dec-16 14:38 46.433342 -121.823806 82 7336ft 254kts
29-Dec-16 14:39 46.439398 -121.724102 123 7336ft 244kts
29-Dec-16 14:40 46.389760 -121.660615 142 7725ft 235kts
29-Dec-16 14:41 46.341187 -121.600903 140 8902ft 230kts
29-Dec-16 14:42 46.301621 -121.527787 129 9836ft 239kts
29-Dec-16 14:43 46.259303 -121.447714 129 9841ft 259kts
29-Dec-16 14:44 46.206445 -121.390787 198 9840ft 250kts
29-Dec-16 14:45 46.147566 -121.438232 209 9836ft 234kts
29-Dec-16 14:46 46.139449 -121.513275 284 9834ft 203kts
29-Dec-16 14:47 46.156441 -121.587159 276 9831ft 187kts
29-Dec-16 14:48 46.124660 -121.632520 209 9838ft 170kts
29-Dec-16 14:49 46.084222 -121.666837 209 9838ft 168kts
29-Dec-16 14:50 46.040587 -121.684406 181 9839ft 169kts
29-Dec-16 14:51 45.994243 -121.684072 181 9838ft 169kts
29-Dec-16 14:52 45.947452 -121.683707 181 9838ft 168kts
29-Dec-16 14:53 45.900771 -121.683344 181 9838ft 168kts
29-Dec-16 14:55 45.859543 -121.683023 181 9841ft 169kts
29-Dec-16 14:56 45.812557 -121.682659 180 9841ft 169kts
29-Dec-16 14:57 45.764698 -121.682279 180 9849ft 184kts
29-Dec-16 14:58 45.711958 -121.690043 227 9849ft 201kts
29-Dec-16 14:59 45.706357 -121.769973 266 8989ft 209kts
29-Dec-16 15:00 45.705860 -121.854257 262 7427ft 218kts
29-Dec-16 15:01 45.688892 -121.935368 249 5864ft 217kts
29-Dec-16 15:02 45.658114 -122.008055 235 4380ft 209kts
29-Dec-16 15:03 45.628232 -122.074134 235 4338ft 191kts
29-Dec-16 15:04 45.600239 -122.136342 235 4333ft 175kts
29-Dec-16 15:05 45.574890 -122.193026 235 4339ft 168kts
29-Dec-16 15:06 45.548709 -122.251428 235 4345ft 189kts
29-Dec-16 15:07 45.519886 -122.315200 235 4341ft 202kts
29-Dec-16 15:08 45.489361 -122.382517 235 4339ft 205kts
29-Dec-16 15:09 45.489109 -122.461759 281 4411ft 212kts
29-Dec-16 15:10 45.512645 -122.540704 298 4196ft 222kts
29-Dec-16 15:11 45.543614 -122.613092 299 3288ft 200kts
29-Dec-16 15:12 45.570985 -122.666234 302 1754ft 165kts
29-Dec-16 15:13 45.605340 -122.664794 71 859ft 147kts
29-Dec-16 15:14 45.594013 -122.618525 124 27ft 111kts
29-Dec-16 15:15 45.589367 -122.604785 54 21ft 0kts
29-Dec-16 15:16 45.592677 -122.600002 46 21ft 27kts
29-Dec-16 15:17 45.591367 -122.592235 119 21ft 24kts
29-Dec-16 15:18 45.588546 -122.586376 196 21ft 6kts
29-Dec-16 15:19 45.588288 -122.586059 211 21ft 0kts
29-Dec-16 15:20 45.588287 -122.586060 211 21ft 0kts
29-Dec-16 15:21 45.588287 -122.586060 211 21ft 0kts

Navigation Log

Ident Type
1. KPDX Airport
2. KPDX Airport